logo
Search for airport 
image banner adimage banner adimage banner ad
image banner ad

ZMUL - Bayan-Ulgii/Ulgii

Located in Ulgii, Mongolia

ICAO - ZMUL, IATA - ULG

Data provided by Airmate  

General information

Coordinates: N48°59'39" E89°55'24"
Elevation is 5755 feet MSL.
 
View others Airports in Bayan-Olgiy

Operational data

Special qualification required
Current time UTC:
Current local time:
Weather at : - ( 0 km )
METAR: YBHM 220858Z AUTO 15033G45KT 6000 SHRA SCT015 BKN018 BKN025 23/21 Q1014
View NOTAMs / SUP AIP / TFR affecting this airport [VIEW]
Communications frequencies: [VIEW]

Runways:

RWY identifierQFULength (ft)Width (ft)SurfaceLDA (ft)
13129°935098UNK
31309°935098UNK
13G129°00UNK
31G309°00UNK
13L7874115UNK
31R7874115UNK

Airport contact information

Address: Ulgii Mongolia

Satellite view of ZMUL